sensor_id;sensor_type;location;lat;lon;timestamp;P1;durP1;ratioP1;P2;durP2;ratioP2
13432;SDS011;6789;47.678;9.158;2023-04-24T00:04:44;0.83;;;0.70;;
13432;SDS011;6789;47.678;9.158;2023-04-24T00:09:36;1.27;;;0.73;;
13432;SDS011;6789;47.678;9.158;2023-04-24T00:14:28;3.00;;;0.83;;
13432;SDS011;6789;47.678;9.158;2023-04-24T00:20:12;1.43;;;0.80;;
13432;SDS011;6789;47.678;9.158;2023-04-24T00:25:05;1.03;;;0.70;;
13432;SDS011;6789;47.678;9.158;2023-04-24T00:29:58;2.67;;;0.70;;
13432;SDS011;6789;47.678;9.158;2023-04-24T00:34:49;0.93;;;0.80;;
13432;SDS011;6789;47.678;9.158;2023-04-24T00:39:41;0.63;;;0.63;;
13432;SDS011;6789;47.678;9.158;2023-04-24T00:44:33;1.13;;;0.60;;
13432;SDS011;6789;47.678;9.158;2023-04-24T00:49:25;1.00;;;0.70;;
13432;SDS011;6789;47.678;9.158;2023-04-24T00:54:18;2.17;;;0.80;;
13432;SDS011;6789;47.678;9.158;2023-04-24T00:59:09;1.37;;;0.90;;
13432;SDS011;6789;47.678;9.158;2023-04-24T01:04:03;0.80;;;0.80;;
13432;SDS011;6789;47.678;9.158;2023-04-24T01:08:55;3.03;;;1.00;;
13432;SDS011;6789;47.678;9.158;2023-04-24T01:13:49;1.13;;;0.80;;
13432;SDS011;6789;47.678;9.158;2023-04-24T01:18:40;1.07;;;0.43;;
13432;SDS011;6789;47.678;9.158;2023-04-24T01:23:33;1.00;;;0.60;;
13432;SDS011;6789;47.678;9.158;2023-04-24T01:28:25;1.07;;;0.50;;
13432;SDS011;6789;47.678;9.158;2023-04-24T01:33:17;1.80;;;0.50;;
13432;SDS011;6789;47.678;9.158;2023-04-24T01:38:09;0.33;;;0.30;;
13432;SDS011;6789;47.678;9.158;2023-04-24T01:43:01;0.80;;;0.43;;
13432;SDS011;6789;47.678;9.158;2023-04-24T01:47:53;0.87;;;0.40;;
13432;SDS011;6789;47.678;9.158;2023-04-24T01:52:45;0.83;;;0.20;;
13432;SDS011;6789;47.678;9.158;2023-04-24T01:57:37;0.30;;;0.30;;
13432;SDS011;6789;47.678;9.158;2023-04-24T02:02:29;1.53;;;0.30;;
13432;SDS011;6789;47.678;9.158;2023-04-24T02:07:22;0.13;;;0.13;;
13432;SDS011;6789;47.678;9.158;2023-04-24T02:12:17;0.53;;;0.40;;
13432;SDS011;6789;47.678;9.158;2023-04-24T02:17:09;0.40;;;0.30;;
13432;SDS011;6789;47.678;9.158;2023-04-24T02:22:00;0.30;;;0.20;;
13432;SDS011;6789;47.678;9.158;2023-04-24T02:26:52;2.00;;;0.43;;
13432;SDS011;6789;47.678;9.158;2023-04-24T02:31:44;0.53;;;0.30;;
13432;SDS011;6789;47.678;9.158;2023-04-24T02:36:45;0.47;;;0.40;;
13432;SDS011;6789;47.678;9.158;2023-04-24T02:41:37;0.23;;;0.10;;
13432;SDS011;6789;47.678;9.158;2023-04-24T02:46:29;1.37;;;0.40;;
13432;SDS011;6789;47.678;9.158;2023-04-24T02:51:20;0.30;;;0.30;;
13432;SDS011;6789;47.678;9.158;2023-04-24T02:56:12;0.20;;;0.20;;
13432;SDS011;6789;47.678;9.158;2023-04-24T03:01:04;0.20;;;0.20;;
13432;SDS011;6789;47.678;9.158;2023-04-24T03:05:56;1.03;;;0.63;;
13432;SDS011;6789;47.678;9.158;2023-04-24T03:10:48;0.47;;;0.30;;
13432;SDS011;6789;47.678;9.158;2023-04-24T03:15:40;1.03;;;0.20;;
13432;SDS011;6789;47.678;9.158;2023-04-24T03:20:32;1.63;;;0.40;;
13432;SDS011;6789;47.678;9.158;2023-04-24T03:25:23;0.33;;;0.20;;
13432;SDS011;6789;47.678;9.158;2023-04-24T03:30:16;0.10;;;0.10;;
13432;SDS011;6789;47.678;9.158;2023-04-24T03:35:08;0.13;;;0.10;;
13432;SDS011;6789;47.678;9.158;2023-04-24T03:40:00;1.60;;;0.20;;
13432;SDS011;6789;47.678;9.158;2023-04-24T03:44:52;0.30;;;0.20;;
13432;SDS011;6789;47.678;9.158;2023-04-24T03:49:45;0.73;;;0.30;;
13432;SDS011;6789;47.678;9.158;2023-04-24T03:54:36;0.87;;;0.43;;
13432;SDS011;6789;47.678;9.158;2023-04-24T03:59:28;0.50;;;0.30;;
13432;SDS011;6789;47.678;9.158;2023-04-24T04:04:20;0.73;;;0.40;;
13432;SDS011;6789;47.678;9.158;2023-04-24T04:09:12;0.20;;;0.20;;
13432;SDS011;6789;47.678;9.158;2023-04-24T04:14:05;1.23;;;0.20;;
13432;SDS011;6789;47.678;9.158;2023-04-24T04:18:57;0.27;;;0.23;;
13432;SDS011;6789;47.678;9.158;2023-04-24T04:23:49;1.43;;;0.13;;
13432;SDS011;6789;47.678;9.158;2023-04-24T04:28:41;1.70;;;0.10;;
13432;SDS011;6789;47.678;9.158;2023-04-24T04:33:33;0.20;;;0.10;;
13432;SDS011;6789;47.678;9.158;2023-04-24T04:38:27;0.90;;;0.30;;
13432;SDS011;6789;47.678;9.158;2023-04-24T04:43:21;0.20;;;0.20;;
13432;SDS011;6789;47.678;9.158;2023-04-24T04:48:13;3.40;;;0.50;;
13432;SDS011;6789;47.678;9.158;2023-04-24T04:53:05;0.67;;;0.30;;
13432;SDS011;6789;47.678;9.158;2023-04-24T04:57:57;0.30;;;0.27;;
13432;SDS011;6789;47.678;9.158;2023-04-24T05:02:51;1.43;;;0.40;;
13432;SDS011;6789;47.678;9.158;2023-04-24T05:07:43;0.80;;;0.40;;
13432;SDS011;6789;47.678;9.158;2023-04-24T05:12:35;0.90;;;0.80;;
13432;SDS011;6789;47.678;9.158;2023-04-24T05:17:27;0.20;;;0.10;;
13432;SDS011;6789;47.678;9.158;2023-04-24T05:22:21;0.40;;;0.30;;
13432;SDS011;6789;47.678;9.158;2023-04-24T05:27:13;0.43;;;0.33;;
13432;SDS011;6789;47.678;9.158;2023-04-24T05:32:07;1.63;;;0.40;;
13432;SDS011;6789;47.678;9.158;2023-04-24T05:37:00;0.23;;;0.20;;
13432;SDS011;6789;47.678;9.158;2023-04-24T05:41:52;0.40;;;0.30;;
13432;SDS011;6789;47.678;9.158;2023-04-24T05:46:44;0.73;;;0.30;;
13432;SDS011;6789;47.678;9.158;2023-04-24T05:51:37;1.00;;;0.47;;
13432;SDS011;6789;47.678;9.158;2023-04-24T05:56:30;0.77;;;0.40;;
13432;SDS011;6789;47.678;9.158;2023-04-24T06:01:22;0.67;;;0.50;;
13432;SDS011;6789;47.678;9.158;2023-04-24T06:06:14;0.67;;;0.40;;
13432;SDS011;6789;47.678;9.158;2023-04-24T06:11:07;1.30;;;0.60;;
13432;SDS011;6789;47.678;9.158;2023-04-24T06:16:07;2.40;;;0.43;;
13432;SDS011;6789;47.678;9.158;2023-04-24T06:20:59;2.03;;;0.50;;
13432;SDS011;6789;47.678;9.158;2023-04-24T06:25:51;1.17;;;0.60;;
13432;SDS011;6789;47.678;9.158;2023-04-24T06:30:57;0.60;;;0.53;;
13432;SDS011;6789;47.678;9.158;2023-04-24T06:35:49;1.67;;;0.60;;
13432;SDS011;6789;47.678;9.158;2023-04-24T06:40:41;0.63;;;0.63;;
13432;SDS011;6789;47.678;9.158;2023-04-24T06:45:36;1.10;;;1.00;;
13432;SDS011;6789;47.678;9.158;2023-04-24T06:50:31;2.20;;;0.90;;
13432;SDS011;6789;47.678;9.158;2023-04-24T06:55:23;2.77;;;1.00;;
13432;SDS011;6789;47.678;9.158;2023-04-24T07:00:15;2.37;;;1.10;;
13432;SDS011;6789;47.678;9.158;2023-04-24T07:05:07;1.30;;;1.17;;
13432;SDS011;6789;47.678;9.158;2023-04-24T07:09:59;4.30;;;1.15;;
13432;SDS011;6789;47.678;9.158;2023-04-24T07:14:52;1.63;;;1.02;;
13432;SDS011;6789;47.678;9.158;2023-04-24T07:19:44;2.80;;;0.90;;
13432;SDS011;6789;47.678;9.158;2023-04-24T07:24:37;4.18;;;1.45;;
13432;SDS011;6789;47.678;9.158;2023-04-24T07:29:37;1.25;;;1.10;;
13432;SDS011;6789;47.678;9.158;2023-04-24T07:34:43;2.97;;;1.30;;
13432;SDS011;6789;47.678;9.158;2023-04-24T07:39:37;1.85;;;1.33;;
13432;SDS011;6789;47.678;9.158;2023-04-24T07:44:29;2.97;;;1.40;;
13432;SDS011;6789;47.678;9.158;2023-04-24T07:49:21;2.63;;;1.37;;
13432;SDS011;6789;47.678;9.158;2023-04-24T07:54:12;2.30;;;1.45;;
13432;SDS011;6789;47.678;9.158;2023-04-24T07:59:05;1.27;;;1.00;;
13432;SDS011;6789;47.678;9.158;2023-04-24T08:03:59;3.37;;;1.30;;
13432;SDS011;6789;47.678;9.158;2023-04-24T08:08:52;2.43;;;1.33;;
13432;SDS011;6789;47.678;9.158;2023-04-24T08:13:45;1.77;;;1.20;;
13432;SDS011;6789;47.678;9.158;2023-04-24T08:18:37;1.30;;;1.10;;
13432;SDS011;6789;47.678;9.158;2023-04-24T08:23:29;3.00;;;0.90;;
13432;SDS011;6789;47.678;9.158;2023-04-24T08:28:25;2.23;;;1.07;;
13432;SDS011;6789;47.678;9.158;2023-04-24T08:33:31;2.93;;;1.20;;
13432;SDS011;6789;47.678;9.158;2023-04-24T08:38:29;4.10;;;1.40;;
13432;SDS011;6789;47.678;9.158;2023-04-24T08:43:36;1.73;;;1.00;;
13432;SDS011;6789;47.678;9.158;2023-04-24T08:48:32;2.70;;;1.17;;
13432;SDS011;6789;47.678;9.158;2023-04-24T08:53:25;1.70;;;1.13;;
13432;SDS011;6789;47.678;9.158;2023-04-24T08:58:18;3.00;;;1.00;;
13432;SDS011;6789;47.678;9.158;2023-04-24T09:03:10;1.13;;;0.97;;
13432;SDS011;6789;47.678;9.158;2023-04-24T09:08:02;1.60;;;1.30;;
13432;SDS011;6789;47.678;9.158;2023-04-24T09:12:58;3.50;;;1.33;;
13432;SDS011;6789;47.678;9.158;2023-04-24T09:17:54;2.70;;;1.10;;
13432;SDS011;6789;47.678;9.158;2023-04-24T09:22:47;4.07;;;1.90;;
13432;SDS011;6789;47.678;9.158;2023-04-24T09:27:42;3.40;;;1.70;;
13432;SDS011;6789;47.678;9.158;2023-04-24T09:32:36;1.93;;;1.10;;
13432;SDS011;6789;47.678;9.158;2023-04-24T09:37:28;2.60;;;1.50;;
13432;SDS011;6789;47.678;9.158;2023-04-24T09:42:29;1.73;;;1.30;;
13432;SDS011;6789;47.678;9.158;2023-04-24T09:47:22;4.93;;;1.67;;
13432;SDS011;6789;47.678;9.158;2023-04-24T09:52:15;1.10;;;1.00;;
13432;SDS011;6789;47.678;9.158;2023-04-24T09:57:08;3.47;;;1.25;;
13432;SDS011;6789;47.678;9.158;2023-04-24T10:02:18;3.10;;;1.50;;
13432;SDS011;6789;47.678;9.158;2023-04-24T10:07:15;3.00;;;1.40;;
13432;SDS011;6789;47.678;9.158;2023-04-24T10:12:07;3.33;;;1.52;;
13432;SDS011;6789;47.678;9.158;2023-04-24T10:17:02;2.33;;;1.20;;
13432;SDS011;6789;47.678;9.158;2023-04-24T10:22:09;2.63;;;1.20;;
13432;SDS011;6789;47.678;9.158;2023-04-24T10:27:16;1.40;;;1.30;;
13432;SDS011;6789;47.678;9.158;2023-04-24T10:33:03;4.50;;;1.20;;
13432;SDS011;6789;47.678;9.158;2023-04-24T10:38:15;2.20;;;1.10;;
13432;SDS011;6789;47.678;9.158;2023-04-24T10:43:18;3.43;;;1.13;;
13432;SDS011;6789;47.678;9.158;2023-04-24T10:48:26;1.30;;;1.20;;
13432;SDS011;6789;47.678;9.158;2023-04-24T10:53:20;2.20;;;1.50;;
13432;SDS011;6789;47.678;9.158;2023-04-24T11:03:50;3.17;;;1.27;;
13432;SDS011;6789;47.678;9.158;2023-04-24T11:09:11;3.07;;;1.40;;
13432;SDS011;6789;47.678;9.158;2023-04-24T11:20:03;1.80;;;1.25;;
13432;SDS011;6789;47.678;9.158;2023-04-24T11:25:24;2.80;;;1.40;;
13432;SDS011;6789;47.678;9.158;2023-04-24T11:30:47;5.47;;;1.55;;
13432;SDS011;6789;47.678;9.158;2023-04-24T11:35:54;2.72;;;1.30;;
13432;SDS011;6789;47.678;9.158;2023-04-24T11:40:48;1.83;;;1.20;;
13432;SDS011;6789;47.678;9.158;2023-04-24T11:45:47;1.73;;;1.30;;
13432;SDS011;6789;47.678;9.158;2023-04-24T11:50:40;2.35;;;1.50;;
13432;SDS011;6789;47.678;9.158;2023-04-24T11:55:51;2.67;;;1.27;;
13432;SDS011;6789;47.678;9.158;2023-04-24T12:00:57;2.45;;;1.25;;
13432;SDS011;6789;47.678;9.158;2023-04-24T12:06:10;2.30;;;1.20;;
13432;SDS011;6789;47.678;9.158;2023-04-24T12:11:16;1.85;;;0.95;;
13432;SDS011;6789;47.678;9.158;2023-04-24T12:16:14;1.38;;;1.00;;
13432;SDS011;6789;47.678;9.158;2023-04-24T12:21:21;2.35;;;1.33;;
13432;SDS011;6789;47.678;9.158;2023-04-24T12:26:30;2.65;;;1.40;;
13432;SDS011;6789;47.678;9.158;2023-04-24T12:31:36;3.20;;;1.50;;
13432;SDS011;6789;47.678;9.158;2023-04-24T12:36:42;4.35;;;1.20;;
13432;SDS011;6789;47.678;9.158;2023-04-24T12:41:53;1.25;;;1.15;;
13432;SDS011;6789;47.678;9.158;2023-04-24T12:46:51;1.35;;;1.10;;
13432;SDS011;6789;47.678;9.158;2023-04-24T12:51:56;4.20;;;1.67;;
13432;SDS011;6789;47.678;9.158;2023-04-24T12:56:51;1.23;;;1.13;;
13432;SDS011;6789;47.678;9.158;2023-04-24T13:01:43;1.95;;;1.10;;
13432;SDS011;6789;47.678;9.158;2023-04-24T13:06:36;2.50;;;1.60;;
13432;SDS011;6789;47.678;9.158;2023-04-24T13:11:29;1.75;;;1.20;;
13432;SDS011;6789;47.678;9.158;2023-04-24T13:16:29;2.47;;;1.08;;
13432;SDS011;6789;47.678;9.158;2023-04-24T13:21:40;2.13;;;1.45;;
13432;SDS011;6789;47.678;9.158;2023-04-24T13:26:49;2.05;;;0.98;;
13432;SDS011;6789;47.678;9.158;2023-04-24T13:31:56;2.38;;;0.93;;
13432;SDS011;6789;47.678;9.158;2023-04-24T13:36:53;2.25;;;1.20;;
13432;SDS011;6789;47.678;9.158;2023-04-24T13:41:50;2.63;;;1.10;;
13432;SDS011;6789;47.678;9.158;2023-04-24T13:46:57;2.03;;;1.35;;
13432;SDS011;6789;47.678;9.158;2023-04-24T13:51:52;4.63;;;1.08;;
13432;SDS011;6789;47.678;9.158;2023-04-24T13:56:46;4.03;;;1.42;;
13432;SDS011;6789;47.678;9.158;2023-04-24T14:01:39;2.95;;;1.30;;
13432;SDS011;6789;47.678;9.158;2023-04-24T14:06:33;5.43;;;1.27;;
13432;SDS011;6789;47.678;9.158;2023-04-24T14:11:39;4.45;;;1.60;;
13432;SDS011;6789;47.678;9.158;2023-04-24T14:16:35;2.75;;;1.13;;
13432;SDS011;6789;47.678;9.158;2023-04-24T14:21:30;1.70;;;1.00;;
13432;SDS011;6789;47.678;9.158;2023-04-24T14:26:24;2.67;;;1.10;;
13432;SDS011;6789;47.678;9.158;2023-04-24T14:31:17;2.33;;;1.25;;
13432;SDS011;6789;47.678;9.158;2023-04-24T14:36:13;1.98;;;1.20;;
13432;SDS011;6789;47.678;9.158;2023-04-24T14:41:07;2.10;;;1.20;;
13432;SDS011;6789;47.678;9.158;2023-04-24T14:46:04;3.20;;;1.75;;
13432;SDS011;6789;47.678;9.158;2023-04-24T14:51:10;4.65;;;1.30;;
13432;SDS011;6789;47.678;9.158;2023-04-24T14:56:06;3.83;;;1.30;;
13432;SDS011;6789;47.678;9.158;2023-04-24T15:00:59;2.72;;;1.38;;
13432;SDS011;6789;47.678;9.158;2023-04-24T15:05:56;1.55;;;1.20;;
13432;SDS011;6789;47.678;9.158;2023-04-24T15:10:49;2.00;;;1.20;;
13432;SDS011;6789;47.678;9.158;2023-04-24T15:15:55;1.50;;;1.20;;
13432;SDS011;6789;47.678;9.158;2023-04-24T15:20:51;3.38;;;1.20;;
13432;SDS011;6789;47.678;9.158;2023-04-24T15:25:45;2.23;;;1.40;;
13432;SDS011;6789;47.678;9.158;2023-04-24T15:30:44;2.93;;;1.30;;
13432;SDS011;6789;47.678;9.158;2023-04-24T15:35:40;1.20;;;1.08;;
13432;SDS011;6789;47.678;9.158;2023-04-24T15:40:33;3.05;;;1.60;;
13432;SDS011;6789;47.678;9.158;2023-04-24T15:45:28;2.15;;;1.20;;
13432;SDS011;6789;47.678;9.158;2023-04-24T15:50:21;4.18;;;1.63;;
13432;SDS011;6789;47.678;9.158;2023-04-24T15:55:14;2.95;;;1.20;;
13432;SDS011;6789;47.678;9.158;2023-04-24T16:00:19;2.60;;;1.75;;
13432;SDS011;6789;47.678;9.158;2023-04-24T16:05:12;4.10;;;1.20;;
13432;SDS011;6789;47.678;9.158;2023-04-24T16:10:18;4.40;;;1.38;;
13432;SDS011;6789;47.678;9.158;2023-04-24T16:15:10;1.87;;;1.30;;
13432;SDS011;6789;47.678;9.158;2023-04-24T16:20:02;2.10;;;1.20;;
13432;SDS011;6789;47.678;9.158;2023-04-24T16:24:55;3.17;;;1.43;;
13432;SDS011;6789;47.678;9.158;2023-04-24T16:29:48;2.77;;;1.50;;
13432;SDS011;6789;47.678;9.158;2023-04-24T16:34:40;3.27;;;1.30;;
13432;SDS011;6789;47.678;9.158;2023-04-24T16:39:33;1.75;;;1.40;;
13432;SDS011;6789;47.678;9.158;2023-04-24T16:44:25;2.72;;;1.90;;
13432;SDS011;6789;47.678;9.158;2023-04-24T16:49:17;3.03;;;1.38;;
13432;SDS011;6789;47.678;9.158;2023-04-24T16:54:13;2.60;;;1.50;;
13432;SDS011;6789;47.678;9.158;2023-04-24T16:59:05;4.57;;;1.80;;
13432;SDS011;6789;47.678;9.158;2023-04-24T17:03:57;4.10;;;1.50;;
13432;SDS011;6789;47.678;9.158;2023-04-24T17:08:52;3.80;;;1.90;;
13432;SDS011;6789;47.678;9.158;2023-04-24T17:13:44;4.77;;;1.97;;
13432;SDS011;6789;47.678;9.158;2023-04-24T17:18:44;3.10;;;1.57;;
13432;SDS011;6789;47.678;9.158;2023-04-24T17:23:36;3.93;;;1.50;;
13432;SDS011;6789;47.678;9.158;2023-04-24T17:28:31;2.33;;;1.43;;
13432;SDS011;6789;47.678;9.158;2023-04-24T17:33:38;3.77;;;1.70;;
13432;SDS011;6789;47.678;9.158;2023-04-24T17:38:31;3.90;;;1.53;;
13432;SDS011;6789;47.678;9.158;2023-04-24T17:43:23;1.50;;;1.40;;
13432;SDS011;6789;47.678;9.158;2023-04-24T17:48:17;2.17;;;1.67;;
13432;SDS011;6789;47.678;9.158;2023-04-24T17:53:33;1.57;;;1.40;;
13432;SDS011;6789;47.678;9.158;2023-04-24T17:58:25;2.87;;;1.60;;
13432;SDS011;6789;47.678;9.158;2023-04-24T18:03:18;3.80;;;1.60;;
13432;SDS011;6789;47.678;9.158;2023-04-24T18:08:24;3.23;;;1.67;;
13432;SDS011;6789;47.678;9.158;2023-04-24T18:13:30;2.87;;;1.47;;
13432;SDS011;6789;47.678;9.158;2023-04-24T18:18:35;2.67;;;1.60;;
13432;SDS011;6789;47.678;9.158;2023-04-24T18:23:28;2.97;;;1.50;;
13432;SDS011;6789;47.678;9.158;2023-04-24T18:28:34;2.80;;;1.60;;
13432;SDS011;6789;47.678;9.158;2023-04-24T18:33:39;1.93;;;1.70;;
13432;SDS011;6789;47.678;9.158;2023-04-24T18:38:46;2.77;;;1.50;;
13432;SDS011;6789;47.678;9.158;2023-04-24T18:43:39;3.17;;;1.30;;
13432;SDS011;6789;47.678;9.158;2023-04-24T18:48:32;5.23;;;1.37;;
13432;SDS011;6789;47.678;9.158;2023-04-24T18:53:37;2.10;;;1.50;;
13432;SDS011;6789;47.678;9.158;2023-04-24T18:58:30;4.27;;;1.50;;
13432;SDS011;6789;47.678;9.158;2023-04-24T19:03:23;1.63;;;1.53;;
13432;SDS011;6789;47.678;9.158;2023-04-24T19:08:15;3.00;;;1.47;;
13432;SDS011;6789;47.678;9.158;2023-04-24T19:13:07;2.03;;;1.50;;
13432;SDS011;6789;47.678;9.158;2023-04-24T19:17:58;3.17;;;1.30;;
13432;SDS011;6789;47.678;9.158;2023-04-24T19:22:50;1.63;;;1.40;;
13432;SDS011;6789;47.678;9.158;2023-04-24T19:27:43;3.30;;;1.80;;
13432;SDS011;6789;47.678;9.158;2023-04-24T19:32:37;2.77;;;1.40;;
13432;SDS011;6789;47.678;9.158;2023-04-24T19:37:29;2.67;;;1.50;;
13432;SDS011;6789;47.678;9.158;2023-04-24T19:42:30;3.43;;;1.50;;
13432;SDS011;6789;47.678;9.158;2023-04-24T19:47:33;3.93;;;1.97;;
13432;SDS011;6789;47.678;9.158;2023-04-24T19:52:25;2.83;;;1.73;;
13432;SDS011;6789;47.678;9.158;2023-04-24T19:57:17;2.73;;;1.70;;
13432;SDS011;6789;47.678;9.158;2023-04-24T20:02:10;4.47;;;1.67;;
13432;SDS011;6789;47.678;9.158;2023-04-24T20:07:08;4.10;;;2.00;;
13432;SDS011;6789;47.678;9.158;2023-04-24T20:12:04;3.30;;;1.73;;
13432;SDS011;6789;47.678;9.158;2023-04-24T20:16:59;2.37;;;1.67;;
13432;SDS011;6789;47.678;9.158;2023-04-24T20:21:52;2.67;;;1.87;;
13432;SDS011;6789;47.678;9.158;2023-04-24T20:26:45;2.60;;;1.80;;
13432;SDS011;6789;47.678;9.158;2023-04-24T20:31:45;3.10;;;1.60;;
13432;SDS011;6789;47.678;9.158;2023-04-24T20:36:39;4.10;;;1.90;;
13432;SDS011;6789;47.678;9.158;2023-04-24T20:41:38;3.67;;;1.80;;
13432;SDS011;6789;47.678;9.158;2023-04-24T20:46:30;2.00;;;1.70;;
13432;SDS011;6789;47.678;9.158;2023-04-24T20:51:23;4.13;;;1.83;;
13432;SDS011;6789;47.678;9.158;2023-04-24T20:56:15;3.97;;;2.00;;
13432;SDS011;6789;47.678;9.158;2023-04-24T21:01:07;4.50;;;2.20;;
13432;SDS011;6789;47.678;9.158;2023-04-24T21:05:59;2.87;;;1.60;;
13432;SDS011;6789;47.678;9.158;2023-04-24T21:10:51;2.27;;;1.90;;
13432;SDS011;6789;47.678;9.158;2023-04-24T21:15:46;4.43;;;2.00;;
13432;SDS011;6789;47.678;9.158;2023-04-24T21:20:38;4.13;;;2.00;;
13432;SDS011;6789;47.678;9.158;2023-04-24T21:25:30;4.10;;;1.87;;
13432;SDS011;6789;47.678;9.158;2023-04-24T21:30:39;3.60;;;2.10;;
13432;SDS011;6789;47.678;9.158;2023-04-24T21:35:31;3.53;;;2.00;;
13432;SDS011;6789;47.678;9.158;2023-04-24T21:40:23;4.70;;;2.00;;
13432;SDS011;6789;47.678;9.158;2023-04-24T21:45:15;4.43;;;2.07;;
13432;SDS011;6789;47.678;9.158;2023-04-24T21:50:07;3.03;;;2.03;;
13432;SDS011;6789;47.678;9.158;2023-04-24T21:55:00;3.43;;;2.20;;
13432;SDS011;6789;47.678;9.158;2023-04-24T21:59:53;2.80;;;2.30;;
13432;SDS011;6789;47.678;9.158;2023-04-24T22:04:47;4.83;;;2.20;;
13432;SDS011;6789;47.678;9.158;2023-04-24T22:10:27;3.70;;;2.00;;
13432;SDS011;6789;47.678;9.158;2023-04-24T22:15:35;5.30;;;2.20;;
13432;SDS011;6789;47.678;9.158;2023-04-24T22:20:44;3.83;;;2.20;;
13432;SDS011;6789;47.678;9.158;2023-04-24T22:25:36;3.47;;;2.30;;
13432;SDS011;6789;47.678;9.158;2023-04-24T22:30:44;4.23;;;2.23;;
13432;SDS011;6789;47.678;9.158;2023-04-24T22:35:35;3.10;;;2.10;;
13432;SDS011;6789;47.678;9.158;2023-04-24T22:40:28;3.87;;;2.20;;
13432;SDS011;6789;47.678;9.158;2023-04-24T22:45:28;4.97;;;2.13;;
13432;SDS011;6789;47.678;9.158;2023-04-24T22:50:19;4.90;;;2.00;;
13432;SDS011;6789;47.678;9.158;2023-04-24T22:55:32;3.20;;;1.97;;
13432;SDS011;6789;47.678;9.158;2023-04-24T23:00:59;6.47;;;2.10;;
13432;SDS011;6789;47.678;9.158;2023-04-24T23:06:16;4.63;;;2.17;;
13432;SDS011;6789;47.678;9.158;2023-04-24T23:11:47;5.23;;;2.47;;
13432;SDS011;6789;47.678;9.158;2023-04-24T23:16:53;1.90;;;1.73;;
13432;SDS011;6789;47.678;9.158;2023-04-24T23:22:13;3.20;;;1.90;;
13432;SDS011;6789;47.678;9.158;2023-04-24T23:27:26;5.43;;;1.93;;
13432;SDS011;6789;47.678;9.158;2023-04-24T23:32:18;2.57;;;2.07;;
13432;SDS011;6789;47.678;9.158;2023-04-24T23:37:09;3.67;;;1.90;;
13432;SDS011;6789;47.678;9.158;2023-04-24T23:42:02;3.27;;;1.83;;
13432;SDS011;6789;47.678;9.158;2023-04-24T23:46:54;4.47;;;2.10;;
13432;SDS011;6789;47.678;9.158;2023-04-24T23:51:47;3.80;;;1.70;;
13432;SDS011;6789;47.678;9.158;2023-04-24T23:56:39;3.33;;;2.00;;
